Air Resources Laboratory banner image
Air Resources Laboratory web site National Oceanic and Atmospheric Administration (NOAA)

ct metar


KBDL 211651Z VRB03KT 10SM FEW200 FEW250 23/06 A3017 RMK AO2 SLP217 T02280061=
KBDR 211652Z 19010KT 10SM CLR 20/09 A3019 RMK AO2 SLP222 T02000089=
KDXR 211653Z 36004KT 10SM CLR 22/06 A3020 RMK AO2 SLP223 T02220056=
KGON 211656Z 21008KT 10SM CLR 18/11 A3017 RMK AO2 SLP215 T01830106=
KHFD 211653Z VRB04KT 10SM CLR 22/07 A3017 RMK AO2 SLP216 T02220072=
KHVN 211653Z 20008KT 10SM CLR 20/12 A3018 RMK AO2 SLP220 T02000117=
KIJD 211652Z AUTO 00000KT 10SM CLR 23/06 A3016 RMK AO2 SLP212 T02280056=
KMMK 211653Z AUTO 35004KT 10SM CLR 23/07 A3017 RMK AO2 SLP216 T02280072=
KOXC 211651Z 00000KT 10SM CLR 21/06 A3020 RMK AO2 SLP236 T02060061=